Болодек

Карта отелей и гостиниц, располагающихся рядом с аэропортом Болодек :

Болодек Хабаровский край 53° 41' 35.52" N, 133° 3' 19.5588" E
Болодек Хабаровский край 53° 41' 35.52" N, 133° 3' 19.5588" E
Код аэродрома ИКАО: 
ZEX3
Код аэродрома RU: 
ЗЕЬ3
Координаты: 
N53.69320° E133.05543°
Превышение над уровнем моря : 
265
Основная полоса: 
18/36
Курс магнитный: 
182,8/002,8
Длина основной ВПП: 
421
Ширина основной ВПП: 
30
Покрытие основной ВПП: 
Нетвёрдое (грунт)
Освещение ВПП: 
Нет
Тип: 
Аэродром
Класс аэродрома: 
Принадлежность: 
ГА
Статус: 
Недействующий
Сайт: 
E-mail аэродрома: 
Страна: 
Россия
Регион: 
Хабаровский край
Город: 
Дополнительная информация: 
Оператор: нет данных.

Найти трансфер

С помощью этой формы Вы можете найти трансфер из аэропорта Болодек в город, аэропорт или вокзал:

Карта места

Javascript is required to view this map.

Погода в аэропортах:

Авиационная погода в Игнатьево

Регион: 
Погода METAR: 
UHBB 241400Z 26001MPS 7000 0550N PRFG NSC 09/09 Q1018 R36/290250 TEMPO 0700 FG RMK QFE746/0994
Время наблюдения: 
2020-09-24T14:00:00Z
Температура C: 
9.0
Точка росы: 
9.0
Направление ветра: 
260
Скорость ветра (узлы): 
2
Метеорологическая видимость: 
4.35
Явления погоды: 
PRFG
Условия полета: 
MVFR
Аэропорт подробнее: 

Авиационная погода в Павлодаре

Регион: 
Погода METAR: 
UASP 241400Z 28011MPS 9999 -SHRA OVC011CB 07/06 Q1004 R21/290260 NOSIG RMK QFE742/0989
Время наблюдения: 
2020-09-24T14:00:00Z
Температура C: 
7.0
Точка росы: 
6.0
Направление ветра: 
280
Скорость ветра (узлы): 
21
Метеорологическая видимость: 
6.21
Явления погоды: 
-SHRA
Условия полета: 
MVFR
Аэропорт подробнее: 

Авиационная погода в Куопио

Регион: 
Погода METAR: 
EFKU 241350Z AUTO 12004KT 6000 SHRA //////CB 13/13 Q1007
Время наблюдения: 
2020-09-24T13:50:00Z
Температура C: 
13.0
Точка росы: 
13.0
Направление ветра: 
120
Скорость ветра (узлы): 
4
Метеорологическая видимость: 
3.73
Явления погоды: 
SHRA

Авиационная погода в Якутске

Регион: 
Погода METAR: 
UEEE 241400Z 05002MPS 1500 R23L/P2000N FU NSC 04/M01 Q1026 R23L/09//60 NOSIG RMK QFE761
Время наблюдения: 
2020-09-24T14:00:00Z
Температура C: 
4.0
Точка росы: 
-1.0
Направление ветра: 
50
Скорость ветра (узлы): 
4
Метеорологическая видимость: 
0.93
Явления погоды: 
FU
Условия полета: 
LIFR
Аэропорт подробнее: